Time;durP1;ratioP1;P1;durP2;ratioP2;P2;SDS_P1;SDS_P2;PMS_P1;PMS_P2;Temp;Humidity;BMP_temperature;BMP_pressure;BME280_temperature;BME280_humidity;BME280_pressure;Samples;Min_cycle;Max_cycle;Signal;HPM_P1;HPM_P2
2020/12/05 00:02:27;;;;;;;24.87;15.03;;;;;;;6.01;68.16;97910.18;2152576;82;21087;-81
2020/12/05 00:05:28;;;;;;;20.27;14.00;;;;;;;6.04;68.07;97914.11;2153049;82;21123;-83
2020/12/05 00:08:32;;;;;;;19.10;13.97;;;;;;;6.09;68.03;97912.49;2152597;82;21110;-80
2020/12/05 00:11:33;;;;;;;24.77;16.07;;;;;;;6.10;67.89;97914.23;2153092;82;21201;-80
2020/12/05 00:14:36;;;;;;;23.90;14.67;;;;;;;6.10;67.82;97921.14;2153105;82;21139;-82
2020/12/05 00:17:38;;;;;;;22.02;14.50;;;;;;;6.05;67.71;97919.73;2152877;83;21126;-81
2020/12/05 00:20:39;;;;;;;23.20;13.93;;;;;;;6.02;67.70;97927.47;2153008;82;21177;-79
2020/12/05 00:23:40;;;;;;;19.23;13.60;;;;;;;5.99;67.74;97932.60;2168296;82;21401;-81
2020/12/05 00:26:41;;;;;;;21.17;15.37;;;;;;;5.98;67.77;97926.55;2170232;82;21146;-81
2020/12/05 00:29:42;;;;;;;21.40;15.17;;;;;;;5.95;67.85;97939.88;2162816;82;21127;-81
2020/12/05 00:32:43;;;;;;;23.07;15.57;;;;;;;5.92;67.94;97932.06;2162958;82;21138;-81
2020/12/05 00:35:44;;;;;;;24.07;15.33;;;;;;;5.91;68.02;97937.66;2162748;82;21273;-82
2020/12/05 00:38:45;;;;;;;23.87;15.43;;;;;;;5.86;68.09;97927.63;2162878;82;21212;-82
2020/12/05 00:41:46;;;;;;;18.93;11.57;;;;;;;5.89;68.17;97935.47;2162887;82;21114;-83
2020/12/05 00:44:47;;;;;;;19.57;13.27;;;;;;;5.87;68.14;97944.91;2162806;82;21095;-80
2020/12/05 00:47:48;;;;;;;21.33;14.00;;;;;;;5.85;68.19;97946.59;2163190;82;21143;-81
2020/12/05 00:50:49;;;;;;;23.23;15.20;;;;;;;5.82;68.34;97950.86;2162636;82;21563;-83
2020/12/05 00:53:53;;;;;;;21.37;14.97;;;;;;;5.80;68.35;97962.91;2162632;82;21164;-81
2020/12/05 00:56:54;;;;;;;24.60;14.83;;;;;;;5.75;68.48;97950.76;2162962;82;21118;-82
2020/12/05 00:59:55;;;;;;;25.33;15.37;;;;;;;5.73;68.49;97948.99;2162515;82;21534;-82
2020/12/05 01:02:56;;;;;;;20.57;15.07;;;;;;;5.73;68.50;97958.92;2162119;82;21154;-82
2020/12/05 01:05:57;;;;;;;19.03;14.10;;;;;;;5.71;68.53;97958.45;2162057;82;21083;-81
2020/12/05 01:08:58;;;;;;;22.60;14.60;;;;;;;5.68;68.63;97956.68;2162355;82;21119;-82
2020/12/05 01:12:00;;;;;;;21.37;14.83;;;;;;;5.68;68.76;97960.56;2162234;82;21233;-82
2020/12/05 01:15:01;;;;;;;21.97;14.07;;;;;;;5.69;68.80;97962.73;2161765;82;21547;-82
2020/12/05 01:18:02;;;;;;;19.53;12.73;;;;;;;5.72;68.74;97959.77;2162054;82;21258;-80
2020/12/05 01:21:03;;;;;;;20.60;14.53;;;;;;;5.75;68.70;97958.95;2162374;82;21230;-82
2020/12/05 01:24:04;;;;;;;21.03;14.63;;;;;;;5.80;68.70;97958.60;2160413;82;21155;-80
2020/12/05 01:27:05;;;;;;;21.93;14.80;;;;;;;5.85;68.56;97963.86;2152671;82;21373;-81
2020/12/05 01:30:07;;;;;;;20.27;13.63;;;;;;;5.86;68.62;97952.23;2152276;82;21377;-84
2020/12/05 01:33:08;;;;;;;20.97;13.60;;;;;;;5.90;68.54;97954.47;2152337;82;21111;-82
2020/12/05 01:36:09;;;;;;;16.83;12.60;;;;;;;5.91;68.53;97956.22;2152403;82;21167;-80
2020/12/05 01:39:10;;;;;;;18.67;13.73;;;;;;;5.97;68.46;97951.13;2152285;82;21127;-82
2020/12/05 01:42:11;;;;;;;20.40;15.53;;;;;;;6.01;68.32;97958.98;2152450;82;21358;-82
2020/12/05 01:45:12;;;;;;;19.40;14.53;;;;;;;6.04;68.35;97959.45;2152383;82;21127;-81
2020/12/05 01:48:13;;;;;;;20.70;15.30;;;;;;;6.04;68.17;97949.95;2152972;82;21103;-80
2020/12/05 01:51:14;;;;;;;20.20;14.20;;;;;;;6.10;68.23;97953.09;2152329;82;21115;-80
2020/12/05 01:54:15;;;;;;;19.03;13.40;;;;;;;6.11;68.15;97952.25;2152000;82;21294;-81
2020/12/05 01:57:17;;;;;;;18.37;13.80;;;;;;;6.13;68.11;97957.45;2152190;82;21127;-80
2020/12/05 02:00:18;;;;;;;20.20;13.67;;;;;;;6.17;67.98;97954.94;2152065;83;21129;-82
2020/12/05 02:03:19;;;;;;;18.40;13.73;;;;;;;6.20;67.96;97952.81;2152414;83;21114;-81
2020/12/05 02:06:20;;;;;;;20.80;14.23;;;;;;;6.18;67.89;97951.48;2152669;82;21127;-81
2020/12/05 02:09:24;;;;;;;23.67;15.03;;;;;;;6.18;67.90;97948.91;2152632;82;21201;-79
2020/12/05 02:12:25;;;;;;;20.07;14.07;;;;;;;6.20;67.93;97951.52;2153150;82;21116;-81
2020/12/05 02:15:32;;;;;;;19.87;14.60;;;;;;;6.19;67.85;97953.23;2152496;82;21860;-80
2020/12/05 02:18:33;;;;;;;16.37;12.77;;;;;;;6.19;67.81;97951.94;2152520;83;21099;-81
2020/12/05 02:21:35;;;;;;;18.63;14.87;;;;;;;6.17;67.85;97951.05;2152163;82;21091;-81
2020/12/05 02:24:36;;;;;;;22.50;15.17;;;;;;;6.14;67.94;97954.88;2170968;82;21284;-80
2020/12/05 02:27:42;;;;;;;18.77;13.27;;;;;;;6.13;68.09;97950.55;2167749;82;21102;-81
2020/12/05 02:30:43;;;;;;;21.20;13.63;;;;;;;6.12;68.03;97947.52;2162545;82;21142;-81
2020/12/05 02:33:44;;;;;;;17.50;13.07;;;;;;;6.14;68.10;97947.11;2162621;82;21613;-82
2020/12/05 02:36:45;;;;;;;18.20;13.77;;;;;;;6.14;68.02;97942.36;2162763;82;21127;-82
2020/12/05 02:39:49;;;;;;;19.27;14.83;;;;;;;6.14;68.14;97947.53;2162523;82;21103;-82
2020/12/05 02:42:50;;;;;;;21.33;14.18;;;;;;;6.15;68.11;97937.20;2163057;82;21130;-82
2020/12/05 02:45:53;;;;;;;20.90;14.73;;;;;;;6.17;68.10;97951.05;2162767;82;21362;-80
2020/12/05 02:48:54;;;;;;;17.67;13.50;;;;;;;6.18;68.12;97949.33;2162839;82;21229;-80
2020/12/05 02:51:58;;;;;;;18.83;13.47;;;;;;;6.21;68.06;97950.23;2162797;82;21091;-81
2020/12/05 02:54:59;;;;;;;17.03;12.40;;;;;;;6.24;68.00;97947.69;2162466;82;21261;-80
2020/12/05 02:58:00;;;;;;;17.67;12.70;;;;;;;6.25;67.92;97932.59;2162705;82;21091;-81
2020/12/05 03:01:06;;;;;;;19.93;14.33;;;;;;;6.26;67.96;97941.23;2162850;82;21118;-81
2020/12/05 03:04:07;;;;;;;18.07;12.60;;;;;;;6.30;67.91;97943.89;2162522;82;21099;-80
2020/12/05 03:07:09;;;;;;;19.20;13.83;;;;;;;6.32;67.83;97949.97;2162255;82;21455;-82
2020/12/05 03:10:10;;;;;;;20.17;13.77;;;;;;;6.37;67.81;97950.03;2162013;82;21130;-80
2020/12/05 03:13:11;;;;;;;19.53;13.47;;;;;;;6.42;67.72;97952.27;2162199;82;21083;-81
2020/12/05 03:16:15;;;;;;;20.23;15.33;;;;;;;6.46;67.66;97962.25;2162163;82;21253;-81
2020/12/05 03:19:15;;;;;;;19.13;13.47;;;;;;;6.45;67.62;97955.33;2162447;82;21230;-81
2020/12/05 03:22:16;;;;;;;17.50;11.90;;;;;;;6.50;67.54;97957.56;2162741;82;21392;-81
2020/12/05 03:25:18;;;;;;;23.77;14.27;;;;;;;6.53;67.39;97964.95;2172854;82;21169;-82
2020/12/05 03:28:19;;;;;;;18.13;13.47;;;;;;;6.56;67.41;97955.05;2163467;82;21122;-82
2020/12/05 03:31:33;;;;;;;20.63;15.10;;;;;;;6.56;67.34;97958.94;2162813;82;21539;-80
2020/12/05 03:34:30;;;;;;;16.53;12.97;;;;;;;6.54;67.35;97963.23;2162160;82;21293;-80
2020/12/05 03:37:31;;;;;;;19.67;13.37;;;;;;;6.52;67.38;97959.74;2162667;82;21134;-80
2020/12/05 03:40:32;;;;;;;22.83;15.30;;;;;;;6.53;67.39;97964.08;2162563;82;21204;-83
2020/12/05 03:43:33;;;;;;;17.57;13.30;;;;;;;6.52;67.34;97965.80;2162966;82;21345;-81
2020/12/05 03:46:36;;;;;;;21.23;14.70;;;;;;;6.48;67.37;97961.84;2162799;82;21123;-80
2020/12/05 03:49:37;;;;;;;20.57;14.43;;;;;;;6.44;67.44;97963.95;2162961;82;21109;-80
2020/12/05 03:52:39;;;;;;;19.80;14.70;;;;;;;6.40;67.49;97972.11;2162727;82;21528;-81
2020/12/05 03:55:40;;;;;;;19.17;14.73;;;;;;;6.35;67.63;97968.58;2162895;82;21166;-83
2020/12/05 03:58:41;;;;;;;18.20;13.83;;;;;;;6.33;67.65;97962.50;2162839;82;21122;-81
2020/12/05 04:01:42;;;;;;;18.10;14.07;;;;;;;6.32;67.71;97968.11;2162654;82;21539;-81
2020/12/05 04:04:46;;;;;;;20.07;14.53;;;;;;;6.30;67.82;97952.97;2163067;82;21118;-81
2020/12/05 04:07:47;;;;;;;16.90;13.37;;;;;;;6.28;67.88;97974.10;2162471;82;21421;-82
2020/12/05 04:10:48;;;;;;;26.57;15.57;;;;;;;6.26;67.96;97969.75;2162881;82;21091;-81
2020/12/05 04:13:49;;;;;;;20.30;14.00;;;;;;;6.25;67.99;97974.05;2162106;82;21437;-81
2020/12/05 04:16:50;;;;;;;22.60;15.77;;;;;;;6.23;68.09;97958.91;2162437;82;21125;-80
2020/12/05 04:19:51;;;;;;;20.70;15.60;;;;;;;6.27;68.09;97963.28;2162822;82;21091;-81
2020/12/05 04:22:54;;;;;;;19.63;14.37;;;;;;;6.27;68.04;97960.70;2162922;82;21188;-82
2020/12/05 04:25:55;;;;;;;21.97;16.07;;;;;;;6.27;68.17;97974.95;2173131;82;21110;-80
2020/12/05 04:28:56;;;;;;;23.80;15.17;;;;;;;6.29;68.17;97969.79;2175165;82;21091;-81
2020/12/05 04:31:58;;;;;;;19.60;14.23;;;;;;;6.30;68.14;97967.64;2174984;82;21114;-81
2020/12/05 04:34:59;;;;;;;16.67;12.57;;;;;;;6.30;68.09;97974.13;2172572;82;21151;-81
2020/12/05 04:38:00;;;;;;;21.43;15.87;;;;;;;6.31;68.20;97957.72;2162073;82;21257;-79
2020/12/05 04:41:02;;;;;;;20.63;15.03;;;;;;;6.30;68.18;97977.59;2162005;82;21118;-80
2020/12/05 04:44:03;;;;;;;19.80;14.40;;;;;;;6.36;68.25;97978.10;2161304;82;21836;-80
2020/12/05 04:47:04;;;;;;;24.00;16.73;;;;;;;6.38;68.15;97982.88;2161526;82;21123;-81
2020/12/05 04:50:05;;;;;;;19.93;13.70;;;;;;;6.38;68.17;97983.75;2161429;82;21404;-81
2020/12/05 04:53:06;;;;;;;16.00;12.40;;;;;;;6.39;68.17;97979.44;2161867;82;21127;-81
2020/12/05 04:56:07;;;;;;;23.23;15.47;;;;;;;6.40;68.13;97978.59;2159886;82;21294;-81
2020/12/05 04:59:08;;;;;;;19.33;15.50;;;;;;;6.39;68.12;97983.33;2160085;82;21172;-81
2020/12/05 05:02:10;;;;;;;19.63;15.80;;;;;;;6.36;68.20;97989.34;2160806;82;21278;-80
2020/12/05 05:05:11;;;;;;;24.07;15.73;;;;;;;6.37;68.21;97997.56;2160622;82;21118;-81
2020/12/05 05:08:12;;;;;;;20.83;14.80;;;;;;;6.39;68.21;97995.00;2161085;82;21150;-82
2020/12/05 05:11:14;;;;;;;18.40;13.87;;;;;;;6.37;68.22;97995.40;2160759;82;21288;-84
2020/12/05 05:14:15;;;;;;;20.20;14.07;;;;;;;6.37;68.20;97991.09;2161031;82;21281;-81
2020/12/05 05:17:16;;;;;;;19.03;15.20;;;;;;;6.38;68.23;97995.42;2160701;82;21146;-81
2020/12/05 05:20:17;;;;;;;19.23;14.50;;;;;;;6.41;68.17;98006.69;2161483;82;21257;-82
2020/12/05 05:23:18;;;;;;;21.63;14.93;;;;;;;6.40;68.19;98003.22;2161082;82;21087;-82
2020/12/05 05:26:20;;;;;;;19.27;14.53;;;;;;;6.41;68.27;98001.50;2148385;83;21135;-80
2020/12/05 05:29:21;;;;;;;21.07;14.97;;;;;;;6.40;68.26;97998.03;2151017;83;21250;-81
2020/12/05 05:32:24;;;;;;;19.40;14.77;;;;;;;6.41;68.25;98004.09;2151468;82;21494;-81
2020/12/05 05:35:25;;;;;;;21.87;15.60;;;;;;;6.44;68.20;98009.32;2151242;83;21162;-79
2020/12/05 05:38:26;;;;;;;22.87;15.87;;;;;;;6.43;68.27;98014.05;2151734;83;21087;-81
2020/12/05 05:41:27;;;;;;;21.83;15.23;;;;;;;6.43;68.27;98025.72;2151741;83;21185;-81
2020/12/05 05:44:28;;;;;;;21.87;15.33;;;;;;;6.41;68.30;98024.83;2151803;83;21123;-82
2020/12/05 05:47:29;;;;;;;22.67;15.30;;;;;;;6.39;68.37;98026.97;2151889;82;21083;-80
2020/12/05 05:50:30;;;;;;;20.60;14.67;;;;;;;6.41;68.44;98014.46;2151467;83;21457;-82
2020/12/05 05:53:31;;;;;;;20.43;15.87;;;;;;;6.40;68.46;98017.48;2151233;83;21123;-80
2020/12/05 05:56:32;;;;;;;19.77;15.63;;;;;;;6.40;68.52;98014.88;2150861;83;21414;-80
2020/12/05 05:59:33;;;;;;;20.37;16.13;;;;;;;6.42;68.56;98023.55;2150464;83;21123;-81
2020/12/05 06:02:34;;;;;;;20.20;15.33;;;;;;;6.44;68.57;98011.91;2150966;83;21127;-81
2020/12/05 06:05:35;;;;;;;21.00;14.77;;;;;;;6.45;68.62;98022.30;2150641;83;21143;-81
2020/12/05 06:08:36;;;;;;;24.33;15.10;;;;;;;6.48;68.64;98014.58;2151380;83;21112;-81
2020/12/05 06:11:37;;;;;;;18.53;14.47;;;;;;;6.55;68.66;98006.45;2151543;83;21083;-82
2020/12/05 06:14:38;;;;;;;20.90;15.57;;;;;;;6.58;68.60;98012.56;2151199;82;21186;-82
2020/12/05 06:17:39;;;;;;;20.30;14.40;;;;;;;6.61;68.60;98018.22;2151272;83;21245;-82
2020/12/05 06:20:40;;;;;;;19.10;14.73;;;;;;;6.65;68.57;98012.22;2151513;83;21139;-81
2020/12/05 06:23:41;;;;;;;19.47;13.33;;;;;;;6.71;68.50;98027.44;2153664;82;21142;-80
2020/12/05 06:26:43;;;;;;;17.43;14.63;;;;;;;6.74;68.40;98024.02;2162931;82;21083;-80
2020/12/05 06:29:44;;;;;;;24.33;15.73;;;;;;;6.78;68.32;98029.69;2161654;82;21114;-81
2020/12/05 06:32:44;;;;;;;22.40;15.37;;;;;;;6.79;68.33;98037.05;2161330;82;21107;-81
2020/12/05 06:35:45;;;;;;;16.63;12.53;;;;;;;6.79;68.40;98027.55;2160971;82;21170;-82
2020/12/05 06:38:47;;;;;;;18.83;14.87;;;;;;;6.81;68.29;98019.36;2160575;82;21111;-80
2020/12/05 06:41:48;;;;;;;25.57;15.30;;;;;;;6.83;68.28;98039.70;2160934;82;21131;-81
2020/12/05 06:44:49;;;;;;;20.50;14.37;;;;;;;6.83;68.29;98024.56;2161477;82;21094;-80
2020/12/05 06:47:50;;;;;;;26.00;14.77;;;;;;;6.84;68.32;98034.96;2162235;82;21418;-81
2020/12/05 06:50:51;;;;;;;19.40;13.57;;;;;;;6.86;68.32;98044.06;2160990;82;21130;-81
2020/12/05 06:53:52;;;;;;;18.47;13.63;;;;;;;6.89;68.23;98044.98;2161352;82;21217;-81
2020/12/05 06:56:53;;;;;;;18.10;13.97;;;;;;;6.91;68.10;98053.66;2161168;82;21122;-82
2020/12/05 06:59:55;;;;;;;20.90;15.83;;;;;;;6.93;68.12;98042.00;2161126;82;21104;-81
2020/12/05 07:02:56;;;;;;;19.77;15.37;;;;;;;6.91;68.36;98036.78;2160994;82;21159;-81
2020/12/05 07:05:57;;;;;;;17.93;13.47;;;;;;;6.91;68.36;98036.78;2161756;82;21169;-82
2020/12/05 07:08:59;;;;;;;18.97;14.43;;;;;;;6.95;68.07;98026.06;2161456;82;21115;-82
2020/12/05 07:12:00;;;;;;;20.70;16.23;;;;;;;7.02;67.87;98036.53;2161726;82;21228;-81
2020/12/05 07:15:01;;;;;;;20.37;14.97;;;;;;;7.02;67.87;98036.53;2161960;82;21158;-81
2020/12/05 07:18:02;;;;;;;20.90;14.80;;;;;;;7.04;67.94;98044.34;2162077;82;21249;-82
2020/12/05 07:21:03;;;;;;;20.67;15.53;;;;;;;7.08;67.88;98051.73;2161984;82;21523;-83
2020/12/05 07:24:04;;;;;;;19.67;15.30;;;;;;;7.10;67.97;98055.22;2163414;82;21127;-82
2020/12/05 07:27:05;;;;;;;21.43;15.50;;;;;;;7.14;67.72;98062.20;2162229;82;21421;-82
2020/12/05 07:30:06;;;;;;;24.23;16.43;;;;;;;7.17;67.66;98062.23;2161700;82;21126;-82
2020/12/05 07:33:07;;;;;;;20.87;15.97;;;;;;;7.22;67.63;98064.47;2161599;82;21111;-81
2020/12/05 07:36:08;;;;;;;22.43;17.10;;;;;;;7.27;67.57;98073.18;2162393;82;21162;-81
2020/12/05 07:39:09;;;;;;;22.00;15.73;;;;;;;7.31;67.48;98080.16;2161194;82;21468;-81
2020/12/05 07:42:10;;;;;;;22.27;15.20;;;;;;;7.37;67.24;98087.14;2161803;82;21119;-81
2020/12/05 07:45:11;;;;;;;21.67;15.83;;;;;;;7.49;67.14;98088.16;2161371;82;21115;-81
2020/12/05 07:48:13;;;;;;;23.43;17.10;;;;;;;7.57;66.92;98098.22;2161378;82;21126;-80
2020/12/05 07:51:14;;;;;;;20.93;16.63;;;;;;;7.64;66.75;98098.73;2161387;82;21099;-81
2020/12/05 07:54:15;;;;;;;19.83;15.97;;;;;;;7.71;66.79;98093.17;2161488;82;21162;-82
2020/12/05 07:57:16;;;;;;;21.43;16.97;;;;;;;7.75;66.41;98098.84;2161979;82;21114;-80
2020/12/05 08:00:17;;;;;;;18.23;15.33;;;;;;;7.83;66.37;98102.86;2161661;82;21475;-81
2020/12/05 08:03:18;;;;;;;18.20;13.53;;;;;;;7.89;66.10;98102.50;2160757;82;21246;-81
2020/12/05 08:06:19;;;;;;;19.27;15.23;;;;;;;8.03;65.94;98110.87;2161665;82;21107;-80
2020/12/05 08:09:20;;;;;;;19.10;16.43;;;;;;;8.17;65.61;98102.34;2161350;82;21135;-82
2020/12/05 08:12:21;;;;;;;20.93;15.67;;;;;;;8.29;65.67;98106.36;2161667;82;21126;-82
2020/12/05 08:15:22;;;;;;;20.43;15.57;;;;;;;8.41;65.01;98098.26;2161879;82;21166;-81
2020/12/05 08:18:23;;;;;;;21.17;16.27;;;;;;;8.50;65.22;98103.53;2161664;82;21491;-81
2020/12/05 08:21:28;;;;;;;19.73;15.80;;;;;;;8.58;64.66;98108.37;2161003;82;21449;-80
2020/12/05 08:24:29;;;;;;;;;;;;;;;10.18;67.85;98111.37;2160356;82;21147;-79
2020/12/05 08:27:30;;;;;;;15.93;13.20;;;;;;;12.08;63.68;98108.05;2150298;83;20227;-80
2020/12/05 08:30:31;;;;;;;23.07;14.50;;;;;;;13.67;57.23;98097.95;2151193;83;21280;-78
2020/12/05 08:33:32;;;;;;;17.52;14.35;;;;;;;14.12;57.37;98098.70;2151089;83;21111;-79
2020/12/05 08:36:34;;;;;;;15.90;13.88;;;;;;;14.62;55.27;98096.66;2152321;82;21127;-80
2020/12/05 08:39:35;;;;;;;20.23;14.60;;;;;;;15.12;52.67;98097.13;2151552;83;21142;-80
2020/12/05 08:42:36;;;;;;;18.05;15.50;;;;;;;15.49;51.31;98103.87;2151798;83;21401;-79
2020/12/05 08:45:37;;;;;;;17.95;14.60;;;;;;;15.82;49.24;98103.70;2150775;83;21110;-79
2020/12/05 08:48:38;;;;;;;18.15;14.63;;;;;;;15.93;49.51;98117.51;2151834;82;21092;-79
2020/12/05 08:51:39;;;;;;;16.25;14.55;;;;;;;16.14;49.72;98116.63;2151355;83;21245;-79
2020/12/05 08:54:40;;;;;;;22.65;15.93;;;;;;;16.05;48.78;98109.80;2151381;83;21172;-78
2020/12/05 08:57:41;;;;;;;17.12;14.50;;;;;;;15.90;48.19;98111.45;2151668;83;21138;-78
2020/12/05 09:00:42;;;;;;;21.05;14.38;;;;;;;16.11;48.49;98114.06;2151917;83;21538;-80
2020/12/05 09:03:43;;;;;;;17.37;14.75;;;;;;;16.31;47.87;98105.27;2152136;82;21103;-78
2020/12/05 09:06:44;;;;;;;17.52;13.93;;;;;;;16.92;47.42;98107.81;2152184;83;21127;-79
2020/12/05 09:09:45;;;;;;;16.42;13.55;;;;;;;17.38;45.25;98109.28;2152081;83;21417;-79
2020/12/05 09:12:46;;;;;;;14.85;12.15;;;;;;;18.20;44.57;98113.54;2151635;83;21123;-79
2020/12/05 09:15:47;;;;;;;15.50;13.90;;;;;;;17.75;42.81;98115.30;2151191;83;21166;-78
2020/12/05 09:18:48;;;;;;;17.02;14.03;;;;;;;17.59;44.42;98133.76;2150952;83;21107;-79
2020/12/05 09:21:50;;;;;;;16.42;13.40;;;;;;;18.12;43.83;98127.43;2151627;83;21181;-79
2020/12/05 09:24:51;;;;;;;16.07;13.53;;;;;;;18.58;42.59;98133.53;2152557;82;21415;-79
2020/12/05 09:27:52;;;;;;;15.65;11.75;;;;;;;18.43;41.20;98128.72;2151926;82;21118;-79
2020/12/05 09:30:55;;;;;;;16.23;12.18;;;;;;;18.67;40.84;98129.30;2151420;83;21184;-79
2020/12/05 09:33:56;;;;;;;15.80;13.08;;;;;;;19.24;39.81;98128.78;2151811;83;21092;-79
2020/12/05 09:36:57;;;;;;;14.47;12.98;;;;;;;19.42;38.87;98132.11;2151145;83;21123;-79
2020/12/05 09:39:58;;;;;;;15.58;13.88;;;;;;;19.56;36.58;98133.84;2151531;83;21234;-78
2020/12/05 09:42:59;;;;;;;13.98;12.68;;;;;;;19.24;36.72;98130.97;2151342;83;21139;-79
2020/12/05 09:46:00;;;;;;;16.27;13.35;;;;;;;19.12;36.67;98122.12;2151525;83;21413;-79
2020/12/05 09:49:01;;;;;;;15.20;12.85;;;;;;;19.21;38.43;98128.88;2152359;83;21184;-79
2020/12/05 09:52:02;;;;;;;17.48;14.18;;;;;;;19.63;36.86;98128.73;2152201;83;21189;-79
2020/12/05 09:55:04;;;;;;;18.75;13.20;;;;;;;19.50;36.53;98123.91;2152027;83;21178;-78
2020/12/05 09:58:05;;;;;;;16.60;13.83;;;;;;;19.34;36.46;98118.28;2151356;83;21425;-78
2020/12/05 10:01:07;;;;;;;16.20;13.55;;;;;;;18.90;37.89;98115.33;2151634;82;21461;-79
2020/12/05 10:04:08;;;;;;;15.95;13.75;;;;;;;19.05;36.94;98114.82;2151475;83;21147;-78
2020/12/05 10:07:09;;;;;;;15.70;13.75;;;;;;;18.92;37.02;98119.25;2151183;82;21762;-78
2020/12/05 10:10:10;;;;;;;15.45;13.18;;;;;;;18.88;36.73;98125.09;2151858;82;21211;-79
2020/12/05 10:13:11;;;;;;;13.48;12.07;;;;;;;18.52;37.44;98133.72;2150704;82;21115;-79
2020/12/05 10:16:12;;;;;;;15.13;12.98;;;;;;;19.15;36.54;98139.22;2151154;83;21123;-80
2020/12/05 10:19:13;;;;;;;17.85;13.98;;;;;;;19.28;36.42;98137.88;2151943;83;21111;-81
2020/12/05 10:22:17;;;;;;;16.23;14.03;;;;;;;18.06;38.28;98150.92;2152817;82;21151;-81
2020/12/05 10:25:18;;;;;;;16.40;14.63;;;;;;;15.93;41.36;98158.30;2151363;82;21135;-80
2020/12/05 10:28:19;;;;;;;15.90;13.70;;;;;;;14.48;44.40;98156.41;2151488;83;21114;-80
2020/12/05 10:31:20;;;;;;;17.65;14.45;;;;;;;13.43;46.98;98148.49;2150911;83;21449;-80
2020/12/05 10:34:21;;;;;;;17.25;14.93;;;;;;;12.85;48.54;98150.28;2151010;83;21162;-80
2020/12/05 10:37:22;;;;;;;21.82;15.55;;;;;;;12.37;50.11;98148.45;2151089;83;21127;-81
2020/12/05 10:40:23;;;;;;;17.40;15.18;;;;;;;11.96;51.75;98141.68;2150771;83;21131;-79
2020/12/05 10:43:24;;;;;;;18.50;14.93;;;;;;;11.68;52.67;98139.59;2150698;83;21123;-80
2020/12/05 10:46:25;;;;;;;18.15;15.35;;;;;;;11.56;53.75;98141.37;2151806;83;21119;-81
2020/12/05 10:49:28;;;;;;;24.67;15.63;;;;;;;11.35;54.85;98132.73;2151512;83;21119;-80
2020/12/05 10:52:29;;;;;;;17.42;14.65;;;;;;;11.18;54.95;98147.54;2151513;83;21111;-80
2020/12/05 10:55:30;;;;;;;21.48;16.12;;;;;;;11.05;55.81;98139.28;2151554;83;21571;-80
2020/12/05 10:58:31;;;;;;;18.55;15.70;;;;;;;10.93;56.05;98144.52;2151704;83;21142;-80
2020/12/05 11:01:33;;;;;;;22.85;17.07;;;;;;;10.82;56.67;98128.86;2151118;83;21289;-81
2020/12/05 11:04:34;;;;;;;19.02;16.07;;;;;;;10.76;57.39;98136.27;2150777;83;21134;-79
2020/12/05 11:07:35;;;;;;;22.35;16.52;;;;;;;10.73;57.60;98124.95;2150470;83;21125;-78
2020/12/05 11:10:36;;;;;;;17.82;15.15;;;;;;;10.71;58.17;98141.92;2149927;83;21266;-80
2020/12/05 11:13:37;;;;;;;20.27;15.75;;;;;;;10.74;58.45;98138.44;2150962;83;21123;-80
2020/12/05 11:16:38;;;;;;;18.30;15.98;;;;;;;10.77;58.42;98144.97;2152449;83;21420;-81
2020/12/05 11:19:39;;;;;;;17.90;14.03;;;;;;;10.77;58.55;98153.67;2152375;83;21135;-80
2020/12/05 11:22:40;;;;;;;22.55;15.15;;;;;;;10.77;59.04;98153.67;2152022;83;21135;-80
2020/12/05 11:25:41;;;;;;;20.57;14.58;;;;;;;10.78;58.90;98159.33;2157290;82;21153;-80
2020/12/05 11:28:42;;;;;;;19.98;14.70;;;;;;;10.79;59.14;98164.11;2168535;82;21120;-80
2020/12/05 11:31:43;;;;;;;16.13;13.70;;;;;;;10.80;59.13;98173.25;2165860;82;21193;-80
2020/12/05 11:34:44;;;;;;;15.97;13.00;;;;;;;10.79;59.36;98178.03;2162153;82;21309;-78
2020/12/05 11:37:45;;;;;;;18.60;13.77;;;;;;;10.79;59.70;98175.42;2162287;82;21142;-81
2020/12/05 11:40:47;;;;;;;16.82;13.20;;;;;;;10.77;59.80;98171.94;2162327;82;21237;-81
2020/12/05 11:43:48;;;;;;;17.77;14.45;;;;;;;10.73;59.71;98176.72;2161768;82;21491;-80
2020/12/05 11:46:49;;;;;;;15.18;11.60;;;;;;;10.72;59.90;98180.64;2162113;82;21151;-81
2020/12/05 11:49:50;;;;;;;16.42;13.38;;;;;;;10.68;60.22;98182.81;2161525;82;21158;-80
2020/12/05 11:52:51;;;;;;;20.70;14.20;;;;;;;10.63;60.13;98185.42;2161955;82;21091;-79
2020/12/05 11:55:52;;;;;;;16.03;13.43;;;;;;;10.60;60.40;98186.72;2161734;82;21159;-79
2020/12/05 11:58:53;;;;;;;16.27;12.97;;;;;;;10.56;60.39;98186.28;2161132;82;21162;-80
2020/12/05 12:01:54;;;;;;;17.93;13.60;;;;;;;10.54;60.63;98185.41;2161394;82;21131;-80
2020/12/05 12:04:56;;;;;;;15.95;12.15;;;;;;;10.52;60.79;98184.53;2161139;82;21143;-80
2020/12/05 12:07:57;;;;;;;16.30;11.93;;;;;;;10.52;60.85;98185.84;2161231;82;21212;-80
2020/12/05 12:10:58;;;;;;;17.30;11.83;;;;;;;10.53;61.06;98187.58;2161253;82;21126;-80
2020/12/05 12:13:59;;;;;;;17.50;13.23;;;;;;;10.52;61.24;98187.14;2162795;82;21381;-81
2020/12/05 12:17:00;;;;;;;14.10;12.00;;;;;;;10.52;61.21;98180.19;2161865;82;21126;-80
2020/12/05 12:20:01;;;;;;;16.80;13.63;;;;;;;10.52;61.62;98179.31;2162370;82;21131;-81
2020/12/05 12:23:02;;;;;;;16.07;12.47;;;;;;;10.52;61.46;98178.88;2162809;82;21122;-80
2020/12/05 12:26:03;;;;;;;13.97;11.87;;;;;;;10.52;61.65;98177.58;2159225;82;21166;-81
2020/12/05 12:29:04;;;;;;;18.47;13.20;;;;;;;10.51;61.86;98167.14;2153160;83;21114;-80
2020/12/05 12:32:05;;;;;;;17.47;13.70;;;;;;;10.49;61.76;98176.27;2152586;83;21091;-81
2020/12/05 12:35:07;;;;;;;15.97;13.27;;;;;;;10.47;61.90;98173.22;2152979;83;21437;-81
2020/12/05 12:38:08;;;;;;;16.77;12.57;;;;;;;10.46;61.94;98174.09;2152184;83;21118;-81
2020/12/05 12:41:09;;;;;;;19.70;13.40;;;;;;;10.45;62.09;98173.22;2152115;83;21123;-80
2020/12/05 12:44:10;;;;;;;19.60;14.53;;;;;;;10.44;62.21;98182.34;2152688;83;21099;-81
2020/12/05 12:47:35;;;;;;;18.00;13.03;;;;;;;10.43;62.43;98188.44;2152079;83;21678;-80
2020/12/05 12:50:16;;;;;;;14.17;11.50;;;;;;;10.40;62.29;98194.91;2149105;83;21112;-79
2020/12/05 12:53:17;;;;;;;20.03;14.37;;;;;;;10.38;62.52;98193.61;2151846;83;21147;-80
2020/12/05 12:56:20;;;;;;;19.10;14.30;;;;;;;10.39;62.50;98197.09;2151758;83;21301;-80
2020/12/05 12:59:21;;;;;;;20.33;15.73;;;;;;;10.38;62.54;98200.13;2152057;83;21111;-80
2020/12/05 13:02:21;;;;;;;21.57;14.90;;;;;;;10.35;62.58;98202.73;2152134;83;21131;-79
2020/12/05 13:05:23;;;;;;;26.30;16.57;;;;;;;10.34;62.79;98210.55;2151037;83;21138;-79
2020/12/05 13:08:24;;;;;;;24.83;16.30;;;;;;;10.32;62.71;98213.59;2150258;83;21111;-81
2020/12/05 13:11:25;;;;;;;22.60;15.60;;;;;;;10.34;62.79;98226.20;2150965;83;21091;-79
2020/12/05 13:14:26;;;;;;;23.13;16.13;;;;;;;10.33;62.87;98235.77;2151066;83;21270;-79
2020/12/05 13:17:27;;;;;;;21.53;15.53;;;;;;;10.34;62.85;98239.25;2151815;83;21119;-79
2020/12/05 13:20:28;;;;;;;22.13;16.63;;;;;;;10.35;62.92;98248.81;2152060;83;21106;-79
2020/12/05 13:23:29;;;;;;;21.87;15.93;;;;;;;10.33;62.91;98253.16;2151970;83;21091;-81
2020/12/05 13:26:31;;;;;;;20.23;14.93;;;;;;;10.29;62.89;98258.80;2152713;82;21444;-80
2020/12/05 13:29:33;;;;;;;23.13;14.37;;;;;;;10.27;62.91;98264.45;2152965;83;21107;-80
2020/12/05 13:32:35;;;;;;;23.43;14.50;;;;;;;10.27;63.00;98275.31;2152936;83;21184;-79
2020/12/05 13:35:36;;;;;;;21.63;16.10;;;;;;;10.24;63.07;98282.69;2152691;83;21239;-79
2020/12/05 13:38:37;;;;;;;22.30;16.00;;;;;;;10.21;63.08;98278.33;2152832;83;21408;-79
2020/12/05 13:41:39;;;;;;;23.63;16.00;;;;;;;10.20;63.32;98284.42;2152781;82;21233;-79
2020/12/05 13:44:40;;;;;;;22.83;16.07;;;;;;;10.17;63.37;98288.28;2152584;82;21109;-77
2020/12/05 13:47:41;;;;;;;22.93;16.37;;;;;;;10.12;63.58;98287.39;2152354;82;21363;-79
2020/12/05 13:50:42;;;;;;;20.93;15.80;;;;;;;10.08;63.56;98292.15;2152404;82;21111;-79
2020/12/05 13:53:43;;;;;;;23.53;15.83;;;;;;;10.04;63.76;98291.70;2151831;82;21125;-79
2020/12/05 13:56:44;;;;;;;22.80;16.60;;;;;;;10.00;63.96;98289.94;2152261;82;21158;-80
2020/12/05 13:59:45;;;;;;;21.37;15.10;;;;;;;9.95;64.03;98296.86;2152232;82;21130;-79